createdAt,value
2023-07-14T00:02:07.055Z,1.95
2023-07-14T00:04:35.484Z,1.95
2023-07-14T00:07:04.983Z,1.73
2023-07-14T00:09:33.832Z,2.22
2023-07-14T00:12:01.699Z,2.15
2023-07-14T00:14:48.763Z,2.00
2023-07-14T00:17:16.537Z,2.13
2023-07-14T00:19:44.220Z,2.28
2023-07-14T00:22:16.859Z,2.30
2023-07-14T00:24:44.769Z,2.00
2023-07-14T00:27:21.730Z,2.03
2023-07-14T00:29:50.755Z,1.83
2023-07-14T00:32:23.728Z,2.25
2023-07-14T00:34:51.623Z,1.80
2023-07-14T00:37:20.067Z,2.25
2023-07-14T00:39:48.676Z,2.53
2023-07-14T00:42:18.217Z,2.25
2023-07-14T00:44:47.399Z,1.83
2023-07-14T00:47:28.445Z,1.95
2023-07-14T00:49:57.669Z,2.20
2023-07-14T00:52:39.003Z,1.83
2023-07-14T00:55:33.334Z,2.20
2023-07-14T00:58:01.145Z,2.30
2023-07-14T01:00:31.650Z,1.90
2023-07-14T01:03:01.107Z,1.90
2023-07-14T01:05:30.113Z,2.10
2023-07-14T01:07:59.154Z,2.08
2023-07-14T01:10:39.905Z,2.08
2023-07-14T01:13:09.871Z,2.53
2023-07-14T01:15:40.225Z,2.25
2023-07-14T01:18:10.358Z,2.47
2023-07-14T01:20:39.702Z,1.70
2023-07-14T01:23:21.842Z,2.20
2023-07-14T01:25:58.468Z,2.00
2023-07-14T01:28:26.183Z,2.15
2023-07-14T01:30:53.808Z,2.15
2023-07-14T01:33:22.424Z,1.95
2023-07-14T01:35:56.639Z,2.30
2023-07-14T01:38:24.811Z,2.40
2023-07-14T01:40:54.514Z,2.20
2023-07-14T01:43:22.599Z,2.45
2023-07-14T01:45:52.644Z,2.05
2023-07-14T01:48:25.576Z,2.17
2023-07-14T01:50:58.049Z,2.35
2023-07-14T01:53:51.401Z,2.10
2023-07-14T01:56:21.555Z,2.42
2023-07-14T01:59:01.705Z,2.58
2023-07-14T02:01:31.242Z,2.50
2023-07-14T02:03:59.850Z,2.78
2023-07-14T02:06:27.844Z,2.70
2023-07-14T02:08:55.594Z,2.28
2023-07-14T02:11:24.443Z,3.00
2023-07-14T02:13:53.672Z,2.42
2023-07-14T02:16:22.649Z,3.25
2023-07-14T02:18:51.542Z,2.50
2023-07-14T02:21:30.819Z,1.83
2023-07-14T02:24:00.895Z,2.13
2023-07-14T02:26:36.901Z,2.22
2023-07-14T02:29:10.848Z,2.55
2023-07-14T02:31:43.918Z,2.55
2023-07-14T02:34:14.124Z,2.17
2023-07-14T02:37:01.868Z,2.20
2023-07-14T02:39:38.331Z,2.08
2023-07-14T02:42:06.535Z,2.28
2023-07-14T02:44:37.816Z,3.08
2023-07-14T02:47:14.295Z,2.85
2023-07-14T02:49:43.036Z,2.40
2023-07-14T02:52:10.784Z,2.22
2023-07-14T02:54:40.304Z,3.15
2023-07-14T02:57:08.369Z,2.63
2023-07-14T02:59:36.046Z,2.78
2023-07-14T03:02:04.404Z,2.72
2023-07-14T03:04:32.138Z,2.05
2023-07-14T03:06:59.805Z,2.70
2023-07-14T03:09:27.539Z,2.35
2023-07-14T03:11:55.276Z,2.63
2023-07-14T03:14:22.936Z,2.55
2023-07-14T03:16:50.576Z,2.67
2023-07-14T03:19:18.503Z,2.75
2023-07-14T03:21:46.244Z,2.50
2023-07-14T03:24:13.878Z,2.78
2023-07-14T03:26:41.556Z,2.42
2023-07-14T03:29:10.520Z,3.67
2023-07-14T03:31:38.244Z,3.30
2023-07-14T03:34:06.175Z,2.95
2023-07-14T03:36:33.839Z,2.50
2023-07-14T03:39:20.486Z,2.75
2023-07-14T03:41:48.311Z,3.25
2023-07-14T03:44:15.937Z,2.38
2023-07-14T03:46:43.677Z,3.10
2023-07-14T03:49:11.409Z,2.60
2023-07-14T03:51:39.326Z,2.70
2023-07-14T03:54:07.504Z,2.33
2023-07-14T03:56:35.372Z,2.47
2023-07-14T03:59:03.406Z,2.70
2023-07-14T04:01:31.284Z,3.03
2023-07-14T04:04:01.408Z,2.78
2023-07-14T04:06:32.607Z,2.85
2023-07-14T04:09:01.804Z,2.65
2023-07-14T04:11:37.086Z,3.00
2023-07-14T04:14:06.284Z,2.80
2023-07-14T04:16:36.858Z,3.15
2023-07-14T04:19:05.096Z,2.42
2023-07-14T04:21:33.451Z,2.75
2023-07-14T04:24:01.127Z,2.80
2023-07-14T04:26:30.212Z,2.95
2023-07-14T04:28:58.580Z,3.17
2023-07-14T04:31:26.277Z,2.58
2023-07-14T04:33:53.989Z,3.28
2023-07-14T04:36:21.633Z,3.33
2023-07-14T04:39:10.836Z,3.58
2023-07-14T04:41:39.010Z,3.20
2023-07-14T04:44:10.171Z,3.70
2023-07-14T04:46:38.812Z,3.00
2023-07-14T04:49:07.603Z,3.17
2023-07-14T04:51:35.862Z,3.53
2023-07-14T04:54:04.141Z,3.90
2023-07-14T04:56:33.717Z,4.60
2023-07-14T04:59:01.509Z,2.90
2023-07-14T05:01:29.562Z,3.00
2023-07-14T05:03:57.765Z,2.75
2023-07-14T05:06:25.691Z,2.70
2023-07-14T05:08:53.455Z,3.35
2023-07-14T05:11:21.236Z,2.70
2023-07-14T05:13:52.580Z,2.58
2023-07-14T05:16:21.017Z,2.50
2023-07-14T05:18:49.485Z,2.40
2023-07-14T05:21:17.275Z,2.70
2023-07-14T05:23:44.919Z,2.38
2023-07-14T05:26:12.851Z,2.58
2023-07-14T05:28:40.733Z,2.60
2023-07-14T05:31:09.909Z,2.83
2023-07-14T05:33:37.613Z,2.72
2023-07-14T05:36:06.101Z,3.45
2023-07-14T05:38:33.711Z,2.50
2023-07-14T05:41:05.197Z,2.78
2023-07-14T05:43:33.180Z,3.13
2023-07-14T05:46:00.948Z,3.15
2023-07-14T05:48:28.696Z,2.55
2023-07-14T05:50:56.388Z,3.92
2023-07-14T05:53:24.035Z,3.90
2023-07-14T05:55:51.772Z,4.57
2023-07-14T05:58:19.501Z,5.93
2023-07-14T06:00:47.131Z,4.82
2023-07-14T06:03:19.800Z,4.65
2023-07-14T06:05:48.924Z,4.50
2023-07-14T06:08:17.200Z,4.22
2023-07-14T06:10:45.112Z,3.38
2023-07-14T06:13:12.769Z,4.03
2023-07-14T06:15:40.429Z,3.30
2023-07-14T06:18:08.163Z,3.05
2023-07-14T06:20:35.875Z,2.55
2023-07-14T06:23:03.763Z,2.30
2023-07-14T06:25:31.697Z,2.70
2023-07-14T06:27:59.442Z,2.28
2023-07-14T06:30:27.154Z,2.35
2023-07-14T06:32:54.889Z,2.25
2023-07-14T06:35:23.913Z,2.53
2023-07-14T06:37:51.590Z,1.85
2023-07-14T06:40:21.889Z,1.98
2023-07-14T06:42:49.618Z,2.30
2023-07-14T06:45:17.751Z,2.03
2023-07-14T06:47:45.415Z,2.20
2023-07-14T06:50:13.097Z,2.40
2023-07-14T06:52:40.729Z,2.03
2023-07-14T06:55:09.209Z,2.50
2023-07-14T06:57:37.136Z,1.75
2023-07-14T07:00:10.400Z,1.70
2023-07-14T07:02:38.261Z,1.73
2023-07-14T07:05:07.916Z,1.60
2023-07-14T07:07:35.785Z,1.58
2023-07-14T07:10:05.078Z,1.83
2023-07-14T07:12:33.169Z,3.78
2023-07-14T07:15:00.888Z,1.92
2023-07-14T07:17:28.758Z,1.65
2023-07-14T07:19:56.481Z,1.70
2023-07-14T07:22:24.287Z,1.98
2023-07-14T07:24:51.915Z,2.05
2023-07-14T07:27:19.620Z,1.88
2023-07-14T07:29:47.361Z,1.65
2023-07-14T07:32:15.085Z,2.00
2023-07-14T07:34:42.871Z,2.10
2023-07-14T07:37:11.894Z,3.15
2023-07-14T07:39:40.068Z,2.20
2023-07-14T07:42:08.982Z,2.55
2023-07-14T07:44:37.545Z,2.75
2023-07-14T07:47:05.743Z,2.90
2023-07-14T07:49:33.567Z,2.70
2023-07-14T07:52:01.277Z,2.45
2023-07-14T07:54:29.127Z,2.80
2023-07-14T07:56:56.871Z,2.70
2023-07-14T07:59:24.734Z,2.75
2023-07-14T08:01:52.931Z,2.47
2023-07-14T08:04:20.776Z,2.20
2023-07-14T08:06:48.579Z,3.45
2023-07-14T08:09:16.418Z,3.10
2023-07-14T08:11:44.206Z,2.22
2023-07-14T08:14:20.211Z,2.25
2023-07-14T08:16:47.966Z,2.97
2023-07-14T08:19:15.965Z,3.65
2023-07-14T08:21:43.719Z,3.28
2023-07-14T08:24:11.519Z,3.20
2023-07-14T08:26:40.434Z,2.83
2023-07-14T08:29:09.898Z,3.33
2023-07-14T08:31:37.713Z,3.47
2023-07-14T08:34:05.475Z,2.33
2023-07-14T08:36:33.239Z,2.90
2023-07-14T08:39:01.550Z,2.50
2023-07-14T08:41:31.880Z,2.88
2023-07-14T08:44:38.947Z,2.90
2023-07-14T08:47:23.482Z,2.85
2023-07-14T08:50:01.868Z,2.60
2023-07-14T08:52:35.765Z,2.90
2023-07-14T08:55:18.729Z,2.85
2023-07-14T08:57:58.190Z,2.80
2023-07-14T09:00:39.896Z,2.67
2023-07-14T09:03:13.699Z,2.85
2023-07-14T09:05:49.966Z,2.60
2023-07-14T09:08:17.781Z,2.05
2023-07-14T09:11:17.555Z,2.80
2023-07-14T09:13:57.762Z,2.78
2023-07-14T09:16:27.422Z,2.22
2023-07-14T09:19:08.017Z,2.13
2023-07-14T09:22:00.464Z,2.38
2023-07-14T09:24:41.656Z,2.30
2023-07-14T09:27:22.704Z,2.00
2023-07-14T09:29:51.409Z,2.25
2023-07-14T09:32:36.647Z,2.10
2023-07-14T09:35:26.754Z,2.40
2023-07-14T09:38:23.680Z,1.80
2023-07-14T09:40:59.389Z,1.38
2023-07-14T09:43:27.411Z,1.85
2023-07-14T09:45:56.251Z,2.13
2023-07-14T09:48:34.800Z,2.08
2023-07-14T09:51:12.345Z,1.70
2023-07-14T09:53:56.660Z,1.70
2023-07-14T09:56:30.622Z,1.63
2023-07-14T09:59:06.967Z,1.80
2023-07-14T10:01:35.099Z,1.58
2023-07-14T10:04:15.945Z,2.05
2023-07-14T10:06:43.739Z,1.70
2023-07-14T10:09:14.086Z,1.40
2023-07-14T10:11:50.268Z,2.35
2023-07-14T10:14:36.817Z,2.17
2023-07-14T10:17:06.257Z,1.67
2023-07-14T10:19:35.682Z,1.48
2023-07-14T10:22:20.334Z,1.77
2023-07-14T10:24:49.510Z,1.98
2023-07-14T10:27:25.166Z,1.58
2023-07-14T10:29:58.789Z,1.95
2023-07-14T10:32:34.462Z,2.03
2023-07-14T10:35:21.449Z,1.48
2023-07-14T10:38:10.909Z,1.85
2023-07-14T10:40:52.653Z,2.33
2023-07-14T10:46:16.670Z,1.63
2023-07-14T10:48:50.454Z,2.13
2023-07-14T10:51:29.257Z,2.00
2023-07-14T10:54:05.208Z,1.80
2023-07-14T10:56:47.115Z,2.25
2023-07-14T10:59:29.752Z,1.75
2023-07-14T11:02:13.050Z,2.20
2023-07-14T11:04:48.583Z,2.35
2023-07-14T11:07:18.537Z,2.00
2023-07-14T11:09:47.527Z,1.58
2023-07-14T11:12:27.111Z,1.65
2023-07-14T11:15:13.528Z,1.52
2023-07-14T11:17:57.850Z,2.13
2023-07-14T11:20:47.012Z,1.95
2023-07-14T11:23:28.878Z,1.48
2023-07-14T11:26:18.862Z,1.67
2023-07-14T11:29:06.419Z,1.60
2023-07-14T11:31:54.969Z,1.60
2023-07-14T11:34:34.929Z,1.63
2023-07-14T11:37:21.599Z,2.17
2023-07-14T11:40:00.285Z,2.40
2023-07-14T11:42:31.680Z,1.83
2023-07-14T11:45:02.214Z,1.58
2023-07-14T11:47:37.061Z,1.88
2023-07-14T11:53:09.198Z,1.63
2023-07-14T11:55:41.835Z,1.70
2023-07-14T11:58:30.296Z,1.52
2023-07-14T12:01:05.045Z,1.50
2023-07-14T12:03:40.685Z,1.10
2023-07-14T12:06:15.925Z,1.63
2023-07-14T12:08:44.146Z,1.42
2023-07-14T12:11:40.645Z,1.40
2023-07-14T12:14:33.288Z,1.67
2023-07-14T12:17:01.676Z,1.40
2023-07-14T12:19:39.930Z,1.52
2023-07-14T12:22:10.368Z,1.50
2023-07-14T12:24:51.463Z,1.52
2023-07-14T12:27:35.922Z,1.80
2023-07-14T12:30:29.696Z,1.27
2023-07-14T12:33:06.527Z,1.40
2023-07-14T12:35:37.605Z,1.50
2023-07-14T12:38:10.275Z,1.63
2023-07-14T12:40:38.935Z,1.10
2023-07-14T12:43:10.826Z,1.30
2023-07-14T12:45:38.462Z,1.40
2023-07-14T12:48:07.948Z,1.40
2023-07-14T12:50:38.483Z,1.60
2023-07-14T12:53:06.098Z,1.80
2023-07-14T12:55:35.637Z,1.48
2023-07-14T12:58:08.672Z,1.40
2023-07-14T13:00:38.578Z,1.52
2023-07-14T13:03:11.611Z,1.52
2023-07-14T13:05:42.963Z,1.40
2023-07-14T13:08:24.727Z,1.45
2023-07-14T13:10:53.349Z,1.58
2023-07-14T13:13:26.674Z,1.52
2023-07-14T13:16:01.360Z,1.30
2023-07-14T13:18:32.823Z,1.40
2023-07-14T13:21:02.826Z,1.60
2023-07-14T13:23:32.952Z,1.55
2023-07-14T13:26:06.657Z,1.30
2023-07-14T13:28:41.243Z,1.45
2023-07-14T13:31:20.087Z,1.85
2023-07-14T13:33:48.833Z,1.73
2023-07-14T13:36:24.208Z,1.30
2023-07-14T13:38:52.289Z,1.88
2023-07-14T13:41:24.713Z,1.75
2023-07-14T13:43:53.805Z,1.40
2023-07-14T13:46:29.497Z,1.55
2023-07-14T13:48:57.205Z,1.45
2023-07-14T13:51:28.994Z,2.15
2023-07-14T13:53:57.088Z,1.52
2023-07-14T13:56:27.571Z,1.40
2023-07-14T13:59:14.798Z,1.83
2023-07-14T14:01:42.576Z,1.30
2023-07-14T14:04:14.344Z,1.75
2023-07-14T14:06:43.180Z,1.58
2023-07-14T14:09:21.570Z,1.70
2023-07-14T14:11:52.664Z,1.77
2023-07-14T14:14:21.667Z,1.88
2023-07-14T14:16:50.288Z,1.83
2023-07-14T14:19:24.428Z,3.25
2023-07-14T14:21:59.865Z,1.73
2023-07-14T14:24:27.773Z,3.85
2023-07-14T14:26:56.837Z,2.00
2023-07-14T14:29:29.135Z,2.13
2023-07-14T14:31:56.841Z,1.50
2023-07-14T14:34:24.554Z,2.17
2023-07-14T14:36:52.463Z,1.98
2023-07-14T14:39:22.701Z,1.70
2023-07-14T14:41:52.643Z,2.17
2023-07-14T14:44:22.992Z,1.30
2023-07-14T14:46:50.663Z,1.65
2023-07-14T14:49:19.347Z,1.85
2023-07-14T14:51:47.505Z,1.95
2023-07-14T14:54:16.370Z,2.10
2023-07-14T14:56:44.834Z,1.88
2023-07-14T14:59:19.789Z,2.20
2023-07-14T15:01:48.091Z,1.50
2023-07-14T15:04:23.698Z,2.13
2023-07-14T15:06:52.851Z,1.38
2023-07-14T15:09:20.786Z,1.58
2023-07-14T15:11:52.337Z,2.08
2023-07-14T15:14:32.184Z,2.35
2023-07-14T15:17:03.569Z,1.38
2023-07-14T15:19:33.686Z,1.63
2023-07-14T15:22:01.285Z,2.03
2023-07-14T15:24:28.910Z,1.38
2023-07-14T15:26:56.721Z,1.65
2023-07-14T15:29:24.471Z,1.60
2023-07-14T15:31:52.509Z,1.25
2023-07-14T15:34:20.913Z,1.42
2023-07-14T15:36:48.814Z,1.35
2023-07-14T15:39:17.415Z,1.60
2023-07-14T15:41:45.194Z,1.83
2023-07-14T15:44:15.887Z,2.10
2023-07-14T15:46:43.825Z,2.05
2023-07-14T15:49:17.792Z,1.98
2023-07-14T15:51:46.350Z,1.80
2023-07-14T15:54:33.087Z,1.90
2023-07-14T15:57:03.190Z,2.00
2023-07-14T15:59:31.590Z,1.90
2023-07-14T16:01:59.273Z,1.80
2023-07-14T16:04:26.999Z,1.92
2023-07-14T16:06:55.808Z,2.22
2023-07-14T16:09:32.432Z,1.73
2023-07-14T16:12:02.142Z,1.80
2023-07-14T16:14:31.263Z,1.75
2023-07-14T16:16:59.016Z,1.88
2023-07-14T16:19:26.705Z,2.33
2023-07-14T16:21:55.712Z,1.98
2023-07-14T16:24:36.780Z,2.42
2023-07-14T16:27:23.871Z,2.03
2023-07-14T16:29:52.796Z,2.63
2023-07-14T16:32:21.405Z,2.42
2023-07-14T16:34:50.601Z,1.45
2023-07-14T16:37:19.276Z,1.80
2023-07-14T16:39:48.042Z,2.17
2023-07-14T16:42:19.608Z,2.13
2023-07-14T16:44:47.680Z,1.60
2023-07-14T16:47:15.457Z,2.67
2023-07-14T16:49:43.214Z,1.77
2023-07-14T16:52:27.878Z,2.55
2023-07-14T16:54:55.568Z,1.85
2023-07-14T16:57:32.999Z,2.05
2023-07-14T17:00:00.700Z,2.20
2023-07-14T17:02:28.560Z,2.13
2023-07-14T17:04:56.931Z,2.03
2023-07-14T17:07:24.669Z,1.77
2023-07-14T17:09:52.352Z,1.73
2023-07-14T17:12:20.481Z,1.70
2023-07-14T17:14:48.500Z,1.92
2023-07-14T17:17:19.303Z,1.95
2023-07-14T17:19:47.645Z,2.53
2023-07-14T17:22:15.508Z,2.15
2023-07-14T17:24:50.154Z,1.88
2023-07-14T17:27:18.102Z,1.90
2023-07-14T17:29:52.063Z,1.75
2023-07-14T17:32:22.815Z,2.00
2023-07-14T17:34:51.659Z,1.98
2023-07-14T17:37:23.100Z,2.10
2023-07-14T17:39:52.782Z,2.90
2023-07-14T17:42:24.510Z,2.00
2023-07-14T17:44:56.204Z,2.25
2023-07-14T17:47:24.638Z,2.20
2023-07-14T17:49:52.319Z,2.10
2023-07-14T17:52:20.015Z,2.30
2023-07-14T17:54:48.606Z,2.25
2023-07-14T17:57:23.054Z,2.00
2023-07-14T17:59:52.550Z,1.98
2023-07-14T18:02:31.939Z,2.58
2023-07-14T18:05:00.148Z,1.60
2023-07-14T18:07:28.008Z,2.10
2023-07-14T18:09:55.763Z,2.28
2023-07-14T18:12:25.576Z,2.08
2023-07-14T18:14:53.790Z,2.22
2023-07-14T18:17:21.679Z,2.20
2023-07-14T18:19:49.711Z,1.88
2023-07-14T18:22:27.746Z,2.20
2023-07-14T18:24:57.807Z,2.00
2023-07-14T18:27:26.339Z,1.98
2023-07-14T18:29:54.110Z,2.30
2023-07-14T18:32:21.734Z,2.20
2023-07-14T18:34:49.404Z,1.70
2023-07-14T18:37:17.287Z,2.03
2023-07-14T18:39:48.423Z,2.20
2023-07-14T18:42:25.757Z,2.50
2023-07-14T18:44:54.161Z,1.90
2023-07-14T18:47:21.845Z,2.35
2023-07-14T18:49:49.818Z,2.63
2023-07-14T18:52:18.940Z,2.13
2023-07-14T18:54:46.840Z,1.95
2023-07-14T18:57:20.123Z,2.60
2023-07-14T18:59:48.721Z,2.03
2023-07-14T19:02:38.790Z,2.15
2023-07-14T19:05:10.131Z,2.10
2023-07-14T19:07:37.876Z,2.00
2023-07-14T19:10:06.990Z,2.63
2023-07-14T19:12:36.837Z,3.00
2023-07-14T19:15:22.454Z,1.92
2023-07-14T19:17:52.167Z,2.25
2023-07-14T19:20:21.135Z,1.58
2023-07-14T19:22:50.676Z,2.25
2023-07-14T19:25:22.134Z,2.65
2023-07-14T19:27:51.357Z,2.28
2023-07-14T19:30:22.957Z,2.13
2023-07-14T19:32:58.027Z,2.20
2023-07-14T19:35:25.994Z,2.40
2023-07-14T19:37:54.864Z,2.90
2023-07-14T19:40:25.798Z,2.42
2023-07-14T19:42:53.825Z,2.03
2023-07-14T19:45:26.107Z,2.20
2023-07-14T19:47:54.495Z,2.67
2023-07-14T19:50:23.900Z,2.50
2023-07-14T19:52:52.821Z,2.28
2023-07-14T19:55:30.016Z,2.05
2023-07-14T19:57:57.852Z,2.80
2023-07-14T20:00:26.105Z,2.60
2023-07-14T20:02:54.172Z,3.65
2023-07-14T20:05:25.867Z,2.28
2023-07-14T20:10:25.658Z,2.30
2023-07-14T20:12:54.155Z,2.47
2023-07-14T20:15:24.815Z,2.97
2023-07-14T20:17:54.650Z,1.90
2023-07-14T20:20:22.568Z,2.20
2023-07-14T20:22:53.286Z,2.15
2023-07-14T20:25:21.434Z,1.70
2023-07-14T20:27:49.288Z,1.90
2023-07-14T20:30:20.378Z,1.75
2023-07-14T20:32:50.122Z,1.97
2023-07-14T20:35:21.105Z,2.45
2023-07-14T20:37:50.533Z,2.00
2023-07-14T20:40:20.148Z,1.85
2023-07-14T20:42:48.385Z,1.88
2023-07-14T20:45:21.852Z,2.70
2023-07-14T20:47:49.581Z,2.03
2023-07-14T20:50:17.865Z,2.38
2023-07-14T20:52:49.236Z,2.05
2023-07-14T20:55:28.745Z,1.95
2023-07-14T20:57:59.619Z,2.53
2023-07-14T21:00:27.730Z,2.13
2023-07-14T21:02:55.535Z,2.47
2023-07-14T21:05:27.358Z,2.55
2023-07-14T21:07:55.155Z,2.08
2023-07-14T21:10:23.060Z,2.42
2023-07-14T21:12:51.025Z,2.28
2023-07-14T21:15:18.834Z,1.92
2023-07-14T21:17:46.550Z,2.83
2023-07-14T21:20:17.294Z,2.15
2023-07-14T21:22:45.297Z,1.83
2023-07-14T21:25:15.410Z,1.90
2023-07-14T21:27:44.360Z,2.00
2023-07-14T21:30:12.853Z,2.25
2023-07-14T21:32:41.091Z,1.95
2023-07-14T21:35:20.027Z,2.20
2023-07-14T21:37:48.714Z,2.08
2023-07-14T21:40:16.996Z,2.00
2023-07-14T21:42:45.587Z,1.92
2023-07-14T21:45:16.470Z,2.03
2023-07-14T21:47:44.873Z,2.15
2023-07-14T21:50:13.686Z,1.65
2023-07-14T21:52:41.538Z,2.38
2023-07-14T21:55:17.216Z,2.50
2023-07-14T21:57:45.274Z,2.72
2023-07-14T22:00:18.317Z,2.00
2023-07-14T22:02:46.325Z,1.90
2023-07-14T22:05:16.043Z,2.22
2023-07-14T22:07:44.383Z,2.90
2023-07-14T22:10:17.738Z,2.10
2023-07-14T22:12:45.661Z,2.45
2023-07-14T22:15:22.234Z,3.30
2023-07-14T22:17:49.950Z,2.88
2023-07-14T22:20:18.558Z,2.28
2023-07-14T22:22:48.743Z,2.00
2023-07-14T22:25:16.635Z,2.13
2023-07-14T22:27:44.566Z,2.38
2023-07-14T22:30:13.268Z,1.60
2023-07-14T22:32:45.682Z,2.65
2023-07-14T22:35:19.225Z,2.95
2023-07-14T22:37:47.324Z,2.53
2023-07-14T22:40:17.215Z,2.45
2023-07-14T22:42:45.777Z,2.17
2023-07-14T22:45:16.351Z,2.30
2023-07-14T22:47:45.541Z,2.20
2023-07-14T22:50:15.391Z,2.40
2023-07-14T22:52:43.804Z,2.35
2023-07-14T22:55:17.152Z,2.22
2023-07-14T22:57:49.542Z,2.30
2023-07-14T23:00:18.764Z,2.40
2023-07-14T23:02:46.601Z,2.35
2023-07-14T23:05:20.107Z,2.30
2023-07-14T23:07:48.853Z,2.13
2023-07-14T23:10:16.653Z,1.77
2023-07-14T23:12:44.463Z,2.30
2023-07-14T23:15:18.218Z,3.08
2023-07-14T23:17:46.471Z,2.00
2023-07-14T23:20:15.525Z,2.63
2023-07-14T23:22:43.386Z,2.50
2023-07-14T23:25:20.189Z,2.30
2023-07-14T23:27:48.451Z,2.42
2023-07-14T23:30:16.199Z,2.53
2023-07-14T23:32:43.979Z,2.22
2023-07-14T23:35:16.785Z,1.75
2023-07-14T23:37:44.540Z,2.05
2023-07-14T23:40:19.360Z,2.03
2023-07-14T23:42:48.062Z,3.03
2023-07-14T23:45:19.997Z,3.13
2023-07-14T23:50:15.547Z,2.00
2023-07-14T23:52:43.852Z,1.98
2023-07-14T23:55:25.189Z,2.33
2023-07-14T23:57:55.112Z,2.83
